createdAt,value
2018-09-26T00:01:08.405Z,54.90
2018-09-26T00:03:41.683Z,55.10
2018-09-26T00:06:10.637Z,55.10
2018-09-26T00:08:39.429Z,55.30
2018-09-26T00:11:08.550Z,55.50
2018-09-26T00:13:37.477Z,55.30
2018-09-26T00:16:06.624Z,55.80
2018-09-26T00:18:35.600Z,55.50
2018-09-26T00:21:04.375Z,55.00
2018-09-26T00:23:33.400Z,55.50
2018-09-26T00:26:02.445Z,55.50
2018-09-26T00:28:31.551Z,55.30
2018-09-26T00:31:00.663Z,56.10
2018-09-26T00:33:29.452Z,56.10
2018-09-26T00:35:58.470Z,56.10
2018-09-26T00:38:27.507Z,56.10
2018-09-26T00:40:56.304Z,56.30
2018-09-26T00:43:25.419Z,56.30
2018-09-26T00:45:54.495Z,56.60
2018-09-26T00:48:23.336Z,56.70
2018-09-26T00:50:52.485Z,56.20
2018-09-26T00:53:21.263Z,56.20
2018-09-26T00:55:50.268Z,56.70
2018-09-26T00:58:19.368Z,56.60
2018-09-26T01:00:48.480Z,56.80
2018-09-26T01:03:17.459Z,56.70
2018-09-26T01:05:46.174Z,56.70
2018-09-26T01:08:14.984Z,57.30
2018-09-26T01:10:43.820Z,56.90
2018-09-26T01:13:12.940Z,56.60
2018-09-26T01:15:42.463Z,56.50
2018-09-26T01:18:11.814Z,56.80
2018-09-26T01:20:42.715Z,57.10
2018-09-26T01:23:12.207Z,57.10
2018-09-26T01:25:41.647Z,56.80
2018-09-26T01:28:10.849Z,57.10
2018-09-26T01:30:40.060Z,56.90
2018-09-26T01:33:09.144Z,57.40
2018-09-26T01:35:38.255Z,57.20
2018-09-26T01:38:07.468Z,57.30
2018-09-26T01:40:36.540Z,57.00
2018-09-26T01:43:05.619Z,57.40
2018-09-26T01:45:34.716Z,57.70
2018-09-26T01:48:03.730Z,57.50
2018-09-26T01:50:32.829Z,57.80
2018-09-26T01:53:01.808Z,57.80
2018-09-26T01:55:30.783Z,57.80
2018-09-26T01:57:59.861Z,58.00
2018-09-26T02:00:29.007Z,57.90
2018-09-26T02:02:58.246Z,57.70
2018-09-26T02:05:27.290Z,58.00
2018-09-26T02:07:56.250Z,58.10
2018-09-26T02:10:25.377Z,58.30
2018-09-26T02:12:54.356Z,58.30
2018-09-26T02:15:23.502Z,58.40
2018-09-26T02:17:52.540Z,58.40
2018-09-26T02:20:21.648Z,58.20
2018-09-26T02:22:50.731Z,58.60
2018-09-26T02:25:19.832Z,58.50
2018-09-26T02:27:48.962Z,58.50
2018-09-26T02:30:17.928Z,58.80
2018-09-26T02:32:46.892Z,58.60
2018-09-26T02:35:16.096Z,58.10
2018-09-26T02:37:45.205Z,57.80
2018-09-26T02:40:14.544Z,58.50
2018-09-26T02:42:43.696Z,59.00
2018-09-26T02:45:12.804Z,59.60
2018-09-26T02:47:41.885Z,59.40
2018-09-26T02:50:11.001Z,58.90
2018-09-26T02:52:40.119Z,59.10
2018-09-26T02:55:09.476Z,59.30
2018-09-26T02:57:38.460Z,58.70
2018-09-26T03:00:07.776Z,59.00
2018-09-26T03:02:36.765Z,59.20
2018-09-26T03:05:05.988Z,59.20
2018-09-26T03:07:34.927Z,59.40
2018-09-26T03:10:04.053Z,59.20
2018-09-26T03:12:33.125Z,59.20
2018-09-26T03:15:02.237Z,59.60
2018-09-26T03:17:31.367Z,59.80
2018-09-26T03:20:00.520Z,60.00
2018-09-26T03:22:29.617Z,59.40
2018-09-26T03:24:58.692Z,59.00
2018-09-26T03:27:27.693Z,59.30
2018-09-26T03:29:56.779Z,59.50
2018-09-26T03:32:25.788Z,59.10
2018-09-26T03:34:54.900Z,59.30
2018-09-26T03:37:23.980Z,60.10
2018-09-26T03:39:53.076Z,60.40
2018-09-26T03:42:22.045Z,61.10
2018-09-26T03:44:51.090Z,61.00
2018-09-26T03:47:20.092Z,61.70
2018-09-26T03:49:49.152Z,61.10
2018-09-26T03:52:18.110Z,60.30
2018-09-26T03:54:47.224Z,60.50
2018-09-26T03:57:16.235Z,60.00
2018-09-26T03:59:45.352Z,60.70
2018-09-26T04:02:14.423Z,60.30
2018-09-26T04:04:43.462Z,59.90
2018-09-26T04:07:12.508Z,60.40
2018-09-26T04:09:41.240Z,60.10
2018-09-26T04:12:10.028Z,60.90
2018-09-26T04:14:39.082Z,60.70
2018-09-26T04:17:08.168Z,60.60
2018-09-26T04:19:37.293Z,60.40
2018-09-26T04:22:06.456Z,59.40
2018-09-26T04:24:35.594Z,59.80
2018-09-26T04:27:04.763Z,59.80
2018-09-26T04:29:33.748Z,60.10
2018-09-26T04:32:03.040Z,60.20
2018-09-26T04:34:32.027Z,60.60
2018-09-26T04:37:01.169Z,60.90
2018-09-26T04:39:30.204Z,60.60
2018-09-26T04:41:58.992Z,60.80
2018-09-26T04:44:27.808Z,60.80
2018-09-26T04:46:56.584Z,60.80
2018-09-26T04:49:26.556Z,61.80
2018-09-26T04:51:55.302Z,61.80
2018-09-26T04:54:24.127Z,61.40
2018-09-26T04:56:53.253Z,61.70
2018-09-26T04:59:22.013Z,62.30
2018-09-26T05:01:51.187Z,61.50
2018-09-26T05:04:20.244Z,62.20
2018-09-26T05:06:49.353Z,62.20
2018-09-26T05:09:18.532Z,62.60
2018-09-26T05:11:47.292Z,62.80
2018-09-26T05:14:16.440Z,62.10
2018-09-26T05:16:45.410Z,62.50
2018-09-26T05:19:14.627Z,61.80
2018-09-26T05:21:43.701Z,62.30
2018-09-26T05:24:12.800Z,61.90
2018-09-26T05:26:42.038Z,62.40
2018-09-26T05:29:11.196Z,61.30
2018-09-26T05:31:40.396Z,61.90
2018-09-26T05:34:09.497Z,61.40
2018-09-26T05:36:38.576Z,62.20
2018-09-26T05:39:09.196Z,62.30
2018-09-26T05:41:37.969Z,61.80
2018-09-26T05:44:07.004Z,61.90
2018-09-26T05:46:35.996Z,62.40
2018-09-26T05:49:05.077Z,62.60
2018-09-26T05:51:34.317Z,62.80
2018-09-26T05:54:03.096Z,62.00
2018-09-26T05:56:31.868Z,62.60
2018-09-26T05:59:00.836Z,62.70
2018-09-26T06:01:29.948Z,61.80
2018-09-26T06:03:59.073Z,61.60
2018-09-26T06:06:27.844Z,62.40
2018-09-26T06:08:56.897Z,63.50
2018-09-26T06:11:25.694Z,63.50
2018-09-26T06:13:54.693Z,63.40
2018-09-26T06:16:23.751Z,62.80
2018-09-26T06:18:52.932Z,63.20
2018-09-26T06:21:21.980Z,63.70
2018-09-26T06:23:51.072Z,63.30
2018-09-26T06:26:20.176Z,63.40
2018-09-26T06:28:49.302Z,63.20
2018-09-26T06:31:18.340Z,64.00
2018-09-26T06:33:47.101Z,63.70
2018-09-26T06:36:16.346Z,63.80
2018-09-26T06:38:45.445Z,63.40
2018-09-26T06:41:14.668Z,64.40
2018-09-26T06:43:43.732Z,63.90
2018-09-26T06:46:12.832Z,63.80
2018-09-26T06:48:41.901Z,63.10
2018-09-26T06:51:11.035Z,62.60
2018-09-26T06:53:40.009Z,63.20
2018-09-26T06:56:09.084Z,63.50
2018-09-26T06:58:38.096Z,64.10
2018-09-26T07:01:07.309Z,64.70
2018-09-26T07:03:36.281Z,64.80
2018-09-26T07:06:05.409Z,64.50
2018-09-26T07:08:34.456Z,66.40
2018-09-26T07:11:03.569Z,66.70
2018-09-26T07:13:32.661Z,66.00
2018-09-26T07:16:01.656Z,67.90
2018-09-26T07:18:30.788Z,68.90
2018-09-26T07:20:59.868Z,68.60
2018-09-26T07:23:28.849Z,68.70
2018-09-26T07:25:57.927Z,69.50
2018-09-26T07:28:27.023Z,70.40
2018-09-26T07:30:56.159Z,70.80
2018-09-26T07:33:25.411Z,70.80
2018-09-26T07:35:54.524Z,71.60
2018-09-26T07:38:23.843Z,70.20
2018-09-26T07:40:52.917Z,68.40
2018-09-26T07:43:22.036Z,68.40
2018-09-26T07:45:51.262Z,68.60
2018-09-26T07:48:20.404Z,68.10
2018-09-26T07:50:49.488Z,67.50
2018-09-26T07:53:18.575Z,67.10
2018-09-26T07:55:47.835Z,66.50
2018-09-26T07:58:17.076Z,66.80
2018-09-26T08:00:46.176Z,66.10
2018-09-26T08:03:15.264Z,66.50
2018-09-26T08:05:44.263Z,65.10
2018-09-26T08:08:13.493Z,65.20
2018-09-26T08:10:42.663Z,64.70
2018-09-26T08:13:11.758Z,64.80
2018-09-26T08:15:40.832Z,64.80
2018-09-26T08:18:09.975Z,64.80
2018-09-26T08:20:39.295Z,64.50
2018-09-26T08:23:08.636Z,65.20
2018-09-26T08:25:38.053Z,64.00
2018-09-26T08:28:07.101Z,64.00
2018-09-26T08:30:36.318Z,64.00
2018-09-26T08:33:05.442Z,63.30
2018-09-26T08:35:34.483Z,63.10
2018-09-26T08:38:03.379Z,62.50
2018-09-26T08:40:32.404Z,62.40
2018-09-26T08:43:01.416Z,64.20
2018-09-26T08:45:30.436Z,62.90
2018-09-26T08:47:59.622Z,62.40
2018-09-26T08:50:28.580Z,63.60
2018-09-26T08:52:57.336Z,63.10
2018-09-26T08:55:26.465Z,61.60
2018-09-26T08:57:55.588Z,62.00
2018-09-26T09:00:29.659Z,61.10
2018-09-26T09:02:58.804Z,61.20
2018-09-26T09:05:28.066Z,60.50
2018-09-26T09:07:57.182Z,58.70
2018-09-26T09:10:26.273Z,58.40
2018-09-26T09:12:55.473Z,58.50
2018-09-26T09:15:25.255Z,59.60
2018-09-26T09:17:54.098Z,60.20
2018-09-26T09:20:23.365Z,60.00
2018-09-26T09:22:52.530Z,58.90
2018-09-26T09:25:21.546Z,59.90
2018-09-26T09:27:50.555Z,58.60
2018-09-26T09:30:19.621Z,58.30
2018-09-26T09:32:49.049Z,57.10
2018-09-26T09:35:18.231Z,58.00
2018-09-26T09:37:47.310Z,57.40
2018-09-26T09:40:16.638Z,57.10
2018-09-26T09:42:46.020Z,55.50
2018-09-26T09:45:14.880Z,55.60
2018-09-26T09:47:43.902Z,55.50
2018-09-26T09:50:13.141Z,55.60
2018-09-26T09:52:42.245Z,55.70
2018-09-26T09:55:11.384Z,55.70
2018-09-26T09:57:40.499Z,55.30
2018-09-26T10:00:09.319Z,55.10
2018-09-26T10:02:38.186Z,55.60
2018-09-26T10:05:07.321Z,55.50
2018-09-26T10:07:36.420Z,53.90
2018-09-26T10:10:05.296Z,53.00
2018-09-26T10:12:34.084Z,53.60
2018-09-26T10:15:03.292Z,53.70
2018-09-26T10:17:32.173Z,53.60
2018-09-26T10:20:01.218Z,54.20
2018-09-26T10:22:30.322Z,53.30
2018-09-26T10:24:59.466Z,52.60
2018-09-26T10:27:28.536Z,52.10
2018-09-26T10:29:57.659Z,52.90
2018-09-26T10:32:26.870Z,51.90
2018-09-26T10:34:56.031Z,51.70
2018-09-26T10:37:25.197Z,53.10
2018-09-26T10:39:53.967Z,52.10
2018-09-26T10:42:23.121Z,52.70
2018-09-26T10:44:52.256Z,51.60
2018-09-26T10:47:21.251Z,53.50
2018-09-26T10:49:50.385Z,52.70
2018-09-26T10:52:19.569Z,51.70
2018-09-26T10:54:48.412Z,52.20
2018-09-26T10:57:17.215Z,51.60
2018-09-26T10:59:45.992Z,52.20
2018-09-26T11:02:15.092Z,51.60
2018-09-26T11:04:44.186Z,50.40
2018-09-26T11:07:13.361Z,49.30
2018-09-26T11:09:42.584Z,52.40
2018-09-26T11:12:11.457Z,50.20
2018-09-26T11:14:40.357Z,50.20
2018-09-26T11:17:09.165Z,54.40
2018-09-26T11:19:38.361Z,51.10
2018-09-26T11:22:08.166Z,49.80
2018-09-26T11:24:37.010Z,48.90
2018-09-26T11:27:06.257Z,48.70
2018-09-26T11:29:35.646Z,49.50
2018-09-26T11:32:04.841Z,48.00
2018-09-26T11:34:33.984Z,49.30
2018-09-26T11:37:02.948Z,48.20
2018-09-26T11:39:32.182Z,49.10
2018-09-26T11:42:01.326Z,47.50
2018-09-26T11:44:30.521Z,47.10
2018-09-26T11:46:59.620Z,47.90
2018-09-26T11:49:28.844Z,48.20
2018-09-26T11:51:58.037Z,48.40
2018-09-26T11:54:27.129Z,47.90
2018-09-26T11:56:56.488Z,47.90
2018-09-26T11:59:25.701Z,48.20
2018-09-26T12:01:54.891Z,47.30
2018-09-26T12:04:23.807Z,46.60
2018-09-26T12:06:52.829Z,46.70
2018-09-26T12:09:21.941Z,46.40
2018-09-26T12:11:51.227Z,46.40
2018-09-26T12:14:20.393Z,46.00
2018-09-26T12:16:49.459Z,46.60
2018-09-26T12:19:18.641Z,46.10
2018-09-26T12:21:47.790Z,45.90
2018-09-26T12:24:16.843Z,46.30
2018-09-26T12:26:45.961Z,46.30
2018-09-26T12:29:14.973Z,45.60
2018-09-26T12:31:44.051Z,46.90
2018-09-26T12:34:13.255Z,46.30
2018-09-26T12:36:42.347Z,45.70
2018-09-26T12:39:11.912Z,45.00
2018-09-26T12:41:41.229Z,44.70
2018-09-26T12:44:10.261Z,43.60
2018-09-26T12:46:39.371Z,44.50
2018-09-26T12:49:08.432Z,44.60
2018-09-26T12:51:37.549Z,44.70
2018-09-26T12:54:06.764Z,45.20
2018-09-26T12:56:35.746Z,43.80
2018-09-26T12:59:05.182Z,42.90
2018-09-26T13:01:34.322Z,43.90
2018-09-26T13:04:03.527Z,43.90
2018-09-26T13:06:32.600Z,42.60
2018-09-26T13:09:01.685Z,41.50
2018-09-26T13:11:30.921Z,42.10
2018-09-26T13:14:00.120Z,42.80
2018-09-26T13:16:28.984Z,42.90
2018-09-26T13:18:57.968Z,42.10
2018-09-26T13:21:26.737Z,42.20
2018-09-26T13:23:55.568Z,41.00
2018-09-26T13:26:24.446Z,40.50
2018-09-26T13:28:53.306Z,42.40
2018-09-26T13:31:22.120Z,41.20
2018-09-26T13:33:50.978Z,41.10
2018-09-26T13:36:19.921Z,41.60
2018-09-26T13:38:48.796Z,41.30
2018-09-26T13:41:17.639Z,41.80
2018-09-26T13:43:46.485Z,41.30
2018-09-26T13:46:15.405Z,40.40
2018-09-26T13:48:44.183Z,40.90
2018-09-26T13:51:13.012Z,41.30
2018-09-26T13:53:42.302Z,41.10
2018-09-26T13:56:11.204Z,40.00
2018-09-26T13:58:40.080Z,40.90
2018-09-26T14:01:08.951Z,40.90
2018-09-26T14:03:37.811Z,42.00
2018-09-26T14:06:06.640Z,40.60
2018-09-26T14:08:35.539Z,39.60
2018-09-26T14:11:04.360Z,39.30
2018-09-26T14:13:33.182Z,40.20
2018-09-26T14:16:01.972Z,39.20
2018-09-26T14:18:30.826Z,39.20
2018-09-26T14:20:59.703Z,39.20
2018-09-26T14:23:28.590Z,39.70
2018-09-26T14:25:57.464Z,40.00
2018-09-26T14:28:26.339Z,39.30
2018-09-26T14:30:55.191Z,39.50
2018-09-26T14:33:24.090Z,39.80
2018-09-26T14:35:52.912Z,39.30
2018-09-26T14:38:21.878Z,39.90
2018-09-26T14:40:50.654Z,38.00
2018-09-26T14:43:19.564Z,37.60
2018-09-26T14:45:48.412Z,37.70
2018-09-26T14:48:17.267Z,37.80
2018-09-26T14:50:46.100Z,38.00
2018-09-26T14:53:14.905Z,38.40
2018-09-26T14:55:43.728Z,37.80
2018-09-26T14:58:12.612Z,37.60
2018-09-26T15:00:41.488Z,37.20
2018-09-26T15:03:10.368Z,37.00
2018-09-26T15:05:39.204Z,37.50
2018-09-26T15:08:08.044Z,37.30
2018-09-26T15:10:36.828Z,37.70
2018-09-26T15:13:05.767Z,37.90
2018-09-26T15:15:34.677Z,37.60
2018-09-26T15:18:03.524Z,37.90
2018-09-26T15:20:32.344Z,38.10
2018-09-26T15:23:01.201Z,38.00
2018-09-26T15:25:30.024Z,38.10
2018-09-26T15:27:59.013Z,38.30
2018-09-26T15:30:27.910Z,38.80
2018-09-26T15:32:56.753Z,38.60
2018-09-26T15:35:25.699Z,37.80
2018-09-26T15:37:54.504Z,37.30
2018-09-26T15:40:23.390Z,37.80
2018-09-26T15:42:52.191Z,38.40
2018-09-26T15:45:21.033Z,38.00
2018-09-26T15:47:49.874Z,38.60
2018-09-26T15:50:18.691Z,38.10
2018-09-26T15:52:47.594Z,38.50
2018-09-26T15:55:16.443Z,38.80
2018-09-26T15:57:45.253Z,39.00
2018-09-26T16:00:14.188Z,39.90
2018-09-26T16:02:42.965Z,39.50
2018-09-26T16:05:11.905Z,39.50
2018-09-26T16:07:40.713Z,40.10
2018-09-26T16:10:09.596Z,40.40
2018-09-26T16:12:38.437Z,40.80
2018-09-26T16:15:07.294Z,40.90
2018-09-26T16:17:36.161Z,41.20
2018-09-26T16:20:05.181Z,41.70
2018-09-26T16:22:33.996Z,41.80
2018-09-26T16:25:02.797Z,42.10
2018-09-26T16:27:31.616Z,42.20
2018-09-26T16:30:00.506Z,42.20
2018-09-26T16:32:29.298Z,42.00
2018-09-26T16:34:58.119Z,42.00
2018-09-26T16:37:26.933Z,42.30
2018-09-26T16:39:55.796Z,42.20
2018-09-26T16:42:24.727Z,42.40
2018-09-26T16:44:53.554Z,42.80
2018-09-26T16:47:22.358Z,42.70
2018-09-26T16:49:51.194Z,42.80
2018-09-26T16:52:20.071Z,43.00
2018-09-26T16:54:48.902Z,43.40
2018-09-26T16:57:17.729Z,43.40
2018-09-26T16:59:46.561Z,43.60
2018-09-26T17:02:15.436Z,44.20
2018-09-26T17:04:44.254Z,44.40
2018-09-26T17:07:13.208Z,44.70
2018-09-26T17:09:42.024Z,44.60
2018-09-26T17:12:10.922Z,44.70
2018-09-26T17:14:40.049Z,45.30
2018-09-26T17:17:09.096Z,45.10
2018-09-26T17:19:37.957Z,45.20
2018-09-26T17:22:06.846Z,45.60
2018-09-26T17:24:35.637Z,46.00
2018-09-26T17:27:04.442Z,46.30
2018-09-26T17:29:33.264Z,46.80
2018-09-26T17:32:02.146Z,47.50
2018-09-26T17:34:31.021Z,47.90
2018-09-26T17:36:59.809Z,48.10
2018-09-26T17:39:28.671Z,47.80
2018-09-26T17:41:57.444Z,47.80
2018-09-26T17:44:26.286Z,47.80
2018-09-26T17:46:55.105Z,47.80
2018-09-26T17:49:23.961Z,48.60
2018-09-26T17:51:52.829Z,48.80
2018-09-26T17:54:21.712Z,48.90
2018-09-26T17:56:50.528Z,49.10
2018-09-26T17:59:19.408Z,49.30
2018-09-26T18:01:48.407Z,49.70
2018-09-26T18:04:17.350Z,49.70
2018-09-26T18:06:46.204Z,50.20
2018-09-26T18:09:15.116Z,50.00
2018-09-26T18:11:43.924Z,50.40
2018-09-26T18:14:12.730Z,50.70
2018-09-26T18:16:41.541Z,50.80
2018-09-26T18:19:10.625Z,51.00
2018-09-26T18:21:39.504Z,51.10
2018-09-26T18:24:08.366Z,51.60
2018-09-26T18:26:37.209Z,51.40
2018-09-26T18:29:06.084Z,51.40
2018-09-26T18:31:35.099Z,51.80
2018-09-26T18:34:05.430Z,51.70
2018-09-26T18:36:34.524Z,51.50
2018-09-26T18:39:03.608Z,51.90
2018-09-26T18:41:32.397Z,51.70
2018-09-26T18:44:01.317Z,51.90
2018-09-26T18:46:30.178Z,52.30
2018-09-26T18:48:59.004Z,52.40
2018-09-26T18:51:27.855Z,52.50
2018-09-26T18:53:56.724Z,52.70
2018-09-26T18:56:25.577Z,52.90
2018-09-26T18:58:54.491Z,52.90
2018-09-26T19:01:23.657Z,53.20
2018-09-26T19:03:52.455Z,53.50
2018-09-26T19:06:21.304Z,53.60
2018-09-26T19:08:50.119Z,53.40
2018-09-26T19:11:19.024Z,53.30
2018-09-26T19:13:47.836Z,53.70
2018-09-26T19:16:16.631Z,53.50
2018-09-26T19:18:45.488Z,53.80
2018-09-26T19:21:14.439Z,53.60
2018-09-26T19:23:43.323Z,54.00
2018-09-26T19:26:12.172Z,53.90
2018-09-26T19:28:41.120Z,54.20
2018-09-26T19:31:10.044Z,53.90
2018-09-26T19:33:38.850Z,54.20
2018-09-26T19:36:07.708Z,54.20
2018-09-26T19:38:36.527Z,54.60
2018-09-26T19:41:05.376Z,54.70
2018-09-26T19:43:34.544Z,54.70
2018-09-26T19:46:03.843Z,54.50
2018-09-26T19:48:33.041Z,55.10
2018-09-26T19:51:02.264Z,55.60
2018-09-26T19:53:31.292Z,55.80
2018-09-26T19:56:00.226Z,55.80
2018-09-26T19:58:29.808Z,55.90
2018-09-26T20:00:59.473Z,55.90
2018-09-26T20:03:28.299Z,56.10
2018-09-26T20:05:57.150Z,56.00
2018-09-26T20:08:25.953Z,56.10
2018-09-26T20:10:54.792Z,56.10
2018-09-26T20:13:23.683Z,56.10
2018-09-26T20:15:52.501Z,56.30
2018-09-26T20:18:21.314Z,56.80
2018-09-26T20:20:50.188Z,56.30
2018-09-26T20:23:19.097Z,56.30
2018-09-26T20:25:47.829Z,56.20
2018-09-26T20:28:16.597Z,56.40
2018-09-26T20:30:45.441Z,56.40
2018-09-26T20:33:14.292Z,56.60
2018-09-26T20:35:42.999Z,57.50
2018-09-26T20:38:11.773Z,56.40
2018-09-26T20:40:40.565Z,56.50
2018-09-26T20:43:09.376Z,56.50
2018-09-26T20:45:38.217Z,56.60
2018-09-26T20:48:07.018Z,56.80
2018-09-26T20:50:35.845Z,56.90
2018-09-26T20:53:04.633Z,57.30
2018-09-26T20:55:34.339Z,57.30
2018-09-26T20:58:03.168Z,57.30
2018-09-26T21:00:32.028Z,57.20
2018-09-26T21:03:00.832Z,57.50
2018-09-26T21:05:29.647Z,57.50
2018-09-26T21:07:58.428Z,57.90
2018-09-26T21:10:27.392Z,57.80
2018-09-26T21:12:56.166Z,57.90
2018-09-26T21:15:24.978Z,57.80
2018-09-26T21:17:53.814Z,57.90
2018-09-26T21:20:22.637Z,58.10
2018-09-26T21:22:51.687Z,58.00
2018-09-26T21:25:20.536Z,57.80
2018-09-26T21:27:49.298Z,57.90
2018-09-26T21:30:18.165Z,58.00
2018-09-26T21:32:46.964Z,59.20
2018-09-26T21:35:15.748Z,59.30
2018-09-26T21:37:44.550Z,59.50
2018-09-26T21:40:13.353Z,59.40
2018-09-26T21:42:42.184Z,59.30
2018-09-26T21:45:10.988Z,59.50
2018-09-26T21:47:39.791Z,59.40
2018-09-26T21:50:08.723Z,59.70
2018-09-26T21:52:37.776Z,60.10
2018-09-26T21:55:06.727Z,60.20
2018-09-26T21:57:35.765Z,60.30
2018-09-26T22:00:05.321Z,60.00
2018-09-26T22:02:34.121Z,59.80
2018-09-26T22:05:02.902Z,60.60
2018-09-26T22:07:31.739Z,60.20
2018-09-26T22:10:00.503Z,60.00
2018-09-26T22:12:29.324Z,61.30
2018-09-26T22:14:58.096Z,60.30
2018-09-26T22:17:26.883Z,60.40
2018-09-26T22:19:55.645Z,60.60
2018-09-26T22:22:24.415Z,60.80
2018-09-26T22:24:53.224Z,61.00
2018-09-26T22:27:22.012Z,60.10
2018-09-26T22:29:50.850Z,61.00
2018-09-26T22:32:19.604Z,60.70
2018-09-26T22:34:48.423Z,61.30
2018-09-26T22:37:17.232Z,60.50
2018-09-26T22:39:45.992Z,61.20
2018-09-26T22:42:14.784Z,61.70
2018-09-26T22:44:43.572Z,61.00
2018-09-26T22:47:12.352Z,61.30
2018-09-26T22:49:41.204Z,61.00
2018-09-26T22:52:09.971Z,61.40
2018-09-26T22:54:38.737Z,61.20
2018-09-26T22:57:07.513Z,61.10
2018-09-26T22:59:36.296Z,61.10
2018-09-26T23:02:05.144Z,61.60
2018-09-26T23:04:33.868Z,61.00
2018-09-26T23:07:02.736Z,61.00
2018-09-26T23:09:31.499Z,61.10
2018-09-26T23:12:00.292Z,61.80
2018-09-26T23:14:29.141Z,62.60
2018-09-26T23:16:58.087Z,62.90
2018-09-26T23:19:26.845Z,61.90
2018-09-26T23:21:55.641Z,62.70
2018-09-26T23:24:24.409Z,62.80
2018-09-26T23:26:53.282Z,62.70
2018-09-26T23:29:22.100Z,62.40
2018-09-26T23:31:50.888Z,62.50
2018-09-26T23:34:19.661Z,61.70
2018-09-26T23:36:48.449Z,61.90
2018-09-26T23:39:17.279Z,62.70
2018-09-26T23:41:46.060Z,62.20
2018-09-26T23:44:14.865Z,62.50
2018-09-26T23:46:43.646Z,62.40
2018-09-26T23:49:12.404Z,62.20
2018-09-26T23:51:41.208Z,62.70
2018-09-26T23:54:10.195Z,62.50
2018-09-26T23:56:38.981Z,62.40
2018-09-26T23:59:07.847Z,62.00
